< < Back
Terminal Aerodrome Forecast


Current Version              Previous Versions:   1  2  3  4  5  6  7  8  9  

Terminal Aerodrome Forecast

138
FTUS42 KJAX 301144 AAA
TAFGNV
TAF AMD
KGNV 301144Z 3012/3112 06007KT P6SM VCSH FEW010 SCT015 BKN030
      TEMPO 3012/3015 5SM SHRA BR SCT008 BKN013
     FM301800 08012G20KT 6SM SHRA VCTS SCT025CB BKN040 OVC060
     FM302300 08010KT P6SM VCSH SCT025 BKN050 OVC060
     FM310500 VRB06KT P6SM VCSH SCT015 OVC030=

Latest METAR

707
SAUS70 KWBC 302200 RRF
MTRGNV
METAR KGNV 302153Z 08006KT 10SM SCT020 OVC050 27/24 A2989 RMK AO2 SLP118
T02720239


USA.gov is the U.S. government's official web portal to all federal, state and local government web resources and services.